createdAt,value
2022-10-21T03:01:51.741Z,7.28
2022-10-21T03:04:18.980Z,7.35
2022-10-21T03:06:46.101Z,6.75
2022-10-21T03:09:13.226Z,7.13
2022-10-21T03:11:40.329Z,7.13
2022-10-21T03:14:07.511Z,6.72
2022-10-21T03:16:34.618Z,7.13
2022-10-21T03:19:01.836Z,7.30
2022-10-21T03:21:28.981Z,7.30
2022-10-21T03:23:56.088Z,7.47
2022-10-21T03:26:23.211Z,8.32
2022-10-21T03:28:50.343Z,11.90
2022-10-21T03:31:17.451Z,6.75
2022-10-21T03:33:44.592Z,8.32
2022-10-21T03:36:11.710Z,7.28
2022-10-21T03:38:38.816Z,7.55
2022-10-21T03:41:05.996Z,7.15
2022-10-21T03:43:33.128Z,8.57
2022-10-21T03:46:00.258Z,7.70
2022-10-21T03:48:27.940Z,7.93
2022-10-21T03:50:58.012Z,6.88
2022-10-21T03:53:42.230Z,8.25
2022-10-21T03:56:11.114Z,7.30
2022-10-21T03:58:38.418Z,8.38
2022-10-21T04:01:05.671Z,7.00
2022-10-21T04:03:32.851Z,9.02
2022-10-21T04:05:59.986Z,10.35
2022-10-21T04:08:27.123Z,8.00
2022-10-21T04:10:57.745Z,8.75
2022-10-21T04:13:25.247Z,8.43
2022-10-21T04:15:58.735Z,7.75
2022-10-21T04:18:25.944Z,7.32
2022-10-21T04:20:53.064Z,7.47
2022-10-21T04:23:20.259Z,8.02
2022-10-21T04:25:47.952Z,7.43
2022-10-21T04:28:15.310Z,10.55
2022-10-21T04:30:42.425Z,11.48
2022-10-21T04:33:09.544Z,8.77
2022-10-21T04:35:40.080Z,8.68
2022-10-21T04:38:07.361Z,8.07
2022-10-21T04:40:34.746Z,8.23
2022-10-21T04:43:02.007Z,10.30
2022-10-21T04:45:29.274Z,8.00
2022-10-21T04:47:56.548Z,9.15
2022-10-21T04:50:23.768Z,9.02
2022-10-21T04:52:51.062Z,9.00
2022-10-21T04:55:18.186Z,7.90
2022-10-21T04:57:46.012Z,8.40
2022-10-21T05:00:13.547Z,9.35
2022-10-21T05:02:41.170Z,7.75
2022-10-21T05:05:08.980Z,8.05
2022-10-21T05:07:36.284Z,8.27
2022-10-21T05:10:03.696Z,8.35
2022-10-21T05:12:30.817Z,9.18
2022-10-21T05:15:00.497Z,8.20
2022-10-21T05:17:27.720Z,11.02
2022-10-21T05:19:54.834Z,9.23
2022-10-21T05:22:23.083Z,9.75
2022-10-21T05:24:50.225Z,8.30
2022-10-21T05:27:17.315Z,9.20
2022-10-21T05:29:44.403Z,9.05
2022-10-21T05:32:11.544Z,10.25
2022-10-21T05:34:38.710Z,9.45
2022-10-21T05:37:05.920Z,8.50
2022-10-21T05:39:33.173Z,8.15
2022-10-21T05:42:00.380Z,8.93
2022-10-21T05:44:27.668Z,8.27
2022-10-21T05:46:54.781Z,9.98
2022-10-21T05:49:21.901Z,9.77
2022-10-21T05:51:49.207Z,9.80
2022-10-21T05:54:16.571Z,9.05
2022-10-21T05:56:43.777Z,10.43
2022-10-21T05:59:11.435Z,9.70
2022-10-21T06:01:39.553Z,11.95
2022-10-21T06:04:07.825Z,9.95
2022-10-21T06:06:35.037Z,10.73
2022-10-21T06:09:02.321Z,9.13
2022-10-21T06:11:29.505Z,9.98
2022-10-21T06:13:56.724Z,9.45
2022-10-21T06:16:24.044Z,9.00
2022-10-21T06:18:51.328Z,8.52
2022-10-21T06:21:18.450Z,9.93
2022-10-21T06:23:45.615Z,10.43
2022-10-21T06:26:15.578Z,9.15
2022-10-21T06:28:44.441Z,11.23
2022-10-21T06:31:15.898Z,11.98
2022-10-21T06:33:43.396Z,10.50
2022-10-21T06:36:10.602Z,9.93
2022-10-21T06:38:38.302Z,9.05
2022-10-21T06:41:13.258Z,9.48
2022-10-21T06:43:44.383Z,10.45
2022-10-21T06:46:13.591Z,8.57
2022-10-21T06:48:40.940Z,8.93
2022-10-21T06:51:20.238Z,8.38
2022-10-21T06:53:51.102Z,8.88
2022-10-21T06:56:19.409Z,7.60
2022-10-21T06:58:48.940Z,7.68
2022-10-21T07:01:27.710Z,8.43
2022-10-21T07:04:04.013Z,8.30
2022-10-21T07:09:07.439Z,7.82
2022-10-21T07:11:34.658Z,6.68
2022-10-21T07:14:02.120Z,7.78
2022-10-21T07:16:32.542Z,8.57
2022-10-21T07:18:59.860Z,8.15
2022-10-21T07:21:28.789Z,8.52
2022-10-21T07:23:59.108Z,8.60
2022-10-21T07:26:28.928Z,7.05
2022-10-21T07:28:58.759Z,8.23
2022-10-21T07:31:26.515Z,8.60
2022-10-21T07:33:54.406Z,8.23
2022-10-21T07:36:27.248Z,8.07
2022-10-21T07:38:57.580Z,8.20
2022-10-21T07:41:31.197Z,8.93
2022-10-21T07:43:58.899Z,7.90
2022-10-21T07:46:26.145Z,7.72
2022-10-21T07:48:53.694Z,8.18
2022-10-21T07:51:26.962Z,8.00
2022-10-21T07:53:59.066Z,7.95
2022-10-21T07:56:32.258Z,7.45
2022-10-21T07:58:59.854Z,8.10
2022-10-21T08:01:28.744Z,9.15
2022-10-21T08:03:56.383Z,8.48
2022-10-21T08:06:26.167Z,7.63
2022-10-21T08:08:53.800Z,8.77
2022-10-21T08:11:29.645Z,7.55
2022-10-21T08:13:57.797Z,7.70
2022-10-21T08:16:26.439Z,7.50
2022-10-21T08:18:54.269Z,7.60
2022-10-21T08:21:21.948Z,9.13
2022-10-21T08:23:49.134Z,9.00
2022-10-21T08:26:16.832Z,9.18
2022-10-21T08:28:44.599Z,7.65
2022-10-21T08:31:20.342Z,7.72
2022-10-21T08:33:48.314Z,9.55
2022-10-21T08:36:18.037Z,7.95
2022-10-21T08:38:45.931Z,7.95
2022-10-21T08:41:24.984Z,6.57
2022-10-21T08:43:54.355Z,8.40
2022-10-21T08:46:27.132Z,5.50
2022-10-21T08:49:07.939Z,6.70
2022-10-21T08:51:51.879Z,6.85
2022-10-21T08:54:51.409Z,6.97
2022-10-21T08:57:19.875Z,6.43
2022-10-21T08:59:47.245Z,7.13
2022-10-21T09:02:30.302Z,7.03
2022-10-21T09:05:29.369Z,6.82
2022-10-21T09:08:07.075Z,7.22
2022-10-21T09:10:47.761Z,6.72
2022-10-21T09:13:54.245Z,8.88
2022-10-21T09:16:59.389Z,8.55
2022-10-21T09:19:43.754Z,5.95
2022-10-21T09:22:35.642Z,5.50
2022-10-21T09:25:09.209Z,7.20
2022-10-21T09:27:54.920Z,6.65
2022-10-21T09:30:23.634Z,6.30
2022-10-21T09:32:55.946Z,6.45
2022-10-21T09:35:29.239Z,6.38
2022-10-21T09:38:19.396Z,6.82
2022-10-21T09:40:49.739Z,6.13
2022-10-21T09:43:20.772Z,7.97
2022-10-21T09:45:48.217Z,7.13
2022-10-21T09:48:18.173Z,7.15
2022-10-21T09:50:53.357Z,7.03
2022-10-21T09:53:31.684Z,6.97
2022-10-21T09:56:06.458Z,7.63
2022-10-21T09:58:36.834Z,7.20
2022-10-21T10:01:05.987Z,7.13
2022-10-21T10:03:34.815Z,7.10
2022-10-21T10:06:03.324Z,7.15
2022-10-21T10:08:44.129Z,8.10
2022-10-21T10:11:14.106Z,7.10
2022-10-21T10:13:52.777Z,8.32
2022-10-21T10:16:32.013Z,6.80
2022-10-21T10:19:25.433Z,7.70
2022-10-21T10:22:14.984Z,6.80
2022-10-21T10:24:44.513Z,7.00
2022-10-21T10:27:20.627Z,7.00
2022-10-21T10:29:55.708Z,7.85
2022-10-21T10:32:26.564Z,7.40
2022-10-21T10:35:00.162Z,7.22
2022-10-21T10:37:31.637Z,6.20
2022-10-21T10:40:00.333Z,6.70
2022-10-21T10:42:33.811Z,6.78
2022-10-21T10:45:12.385Z,6.10
2022-10-21T10:47:47.578Z,4.90
2022-10-21T10:50:40.410Z,4.72
2022-10-21T10:53:33.532Z,4.82
2022-10-21T10:56:20.738Z,4.60
2022-10-21T10:59:14.609Z,4.43
2022-10-21T11:02:05.645Z,4.63
2022-10-21T11:07:31.804Z,4.95
2022-10-21T11:10:07.746Z,5.15
2022-10-21T11:12:34.943Z,5.28
2022-10-21T11:15:02.070Z,5.00
2022-10-21T11:17:41.514Z,4.30
2022-10-21T11:20:55.244Z,4.22
2022-10-21T11:23:43.912Z,4.13
2022-10-21T11:26:36.113Z,4.25
2022-10-21T11:29:13.934Z,4.18
2022-10-21T11:32:22.991Z,4.30
2022-10-21T11:35:19.666Z,4.32
2022-10-21T11:38:08.365Z,3.95
2022-10-21T11:41:25.586Z,3.60
2022-10-21T11:44:29.606Z,3.25
2022-10-21T11:47:28.606Z,3.28
2022-10-21T11:50:15.082Z,3.30
2022-10-21T11:53:12.447Z,2.72
2022-10-21T11:55:43.412Z,3.10
2022-10-21T11:58:29.564Z,2.58
2022-10-21T12:01:12.540Z,2.90
2022-10-21T12:03:48.201Z,2.45
2022-10-21T12:06:34.458Z,2.80
2022-10-21T12:09:46.116Z,2.38
2022-10-21T12:12:17.620Z,3.20
2022-10-21T12:14:54.542Z,2.72
2022-10-21T12:17:24.010Z,2.38
2022-10-21T12:19:59.376Z,2.58
2022-10-21T12:22:29.413Z,2.35
2022-10-21T12:25:16.791Z,2.30
2022-10-21T12:28:04.496Z,2.30
2022-10-21T12:30:56.424Z,2.40
2022-10-21T12:33:47.833Z,2.60
2022-10-21T12:36:38.304Z,2.40
2022-10-21T12:39:25.796Z,2.55
2022-10-21T12:42:12.571Z,2.00
2022-10-21T12:44:46.515Z,1.98
2022-10-21T12:47:25.039Z,2.20
2022-10-21T12:50:19.415Z,2.05
2022-10-21T12:53:03.193Z,2.20
2022-10-21T12:55:36.027Z,2.08
2022-10-21T12:58:05.688Z,2.40
2022-10-21T13:00:32.887Z,2.00
2022-10-21T13:03:11.456Z,2.13
2022-10-21T13:05:38.567Z,2.30
2022-10-21T13:08:20.572Z,1.92
2022-10-21T13:11:05.918Z,2.13
2022-10-21T13:13:40.371Z,2.13
2022-10-21T13:18:54.304Z,2.20
2022-10-21T13:21:35.412Z,1.90
2022-10-21T13:24:24.977Z,2.00
2022-10-21T13:27:00.671Z,1.92
2022-10-21T13:29:32.745Z,2.08
2022-10-21T13:32:14.860Z,1.90
2022-10-21T13:34:58.668Z,2.10
2022-10-21T13:37:36.193Z,2.42
2022-10-21T13:40:15.677Z,2.42
2022-10-21T13:42:55.413Z,2.50
2022-10-21T13:45:38.102Z,2.60
2022-10-21T13:48:12.053Z,2.40
2022-10-21T13:50:42.594Z,2.47
2022-10-21T13:53:38.052Z,2.15
2022-10-21T13:56:17.717Z,2.22
2022-10-21T13:58:44.953Z,2.40
2022-10-21T14:01:21.897Z,2.17
2022-10-21T14:06:31.782Z,2.15
2022-10-21T14:09:04.579Z,2.42
2022-10-21T14:11:37.328Z,2.10
2022-10-21T14:14:08.451Z,2.45
2022-10-21T14:16:39.485Z,1.90
2022-10-21T14:19:09.841Z,2.20
2022-10-21T14:21:39.162Z,2.13
2022-10-21T14:24:06.719Z,2.00
2022-10-21T14:26:34.592Z,2.50
2022-10-21T14:29:02.248Z,2.60
2022-10-21T14:31:29.840Z,2.60
2022-10-21T14:33:57.318Z,2.55
2022-10-21T14:36:27.692Z,2.95
2022-10-21T14:39:03.159Z,2.70
2022-10-21T14:41:36.821Z,2.65
2022-10-21T14:44:20.250Z,2.72
2022-10-21T14:46:50.736Z,2.42
2022-10-21T14:49:42.733Z,2.60
2022-10-21T14:52:21.893Z,3.47
2022-10-21T14:54:58.464Z,2.83
2022-10-21T14:57:47.551Z,2.90
2022-10-21T15:00:29.025Z,3.00
2022-10-21T15:02:59.469Z,3.05
2022-10-21T15:05:37.835Z,3.08
2022-10-21T15:08:21.360Z,2.83
2022-10-21T15:10:57.704Z,2.95
2022-10-21T15:13:26.827Z,3.05
2022-10-21T15:15:56.301Z,3.08
2022-10-21T15:18:34.540Z,3.10
2022-10-21T15:21:13.678Z,3.47
2022-10-21T15:23:50.548Z,4.20
2022-10-21T15:26:20.823Z,4.55
2022-10-21T15:28:48.151Z,5.22
2022-10-21T15:31:20.695Z,5.85
2022-10-21T15:33:53.081Z,5.85
2022-10-21T15:36:20.379Z,5.82
2022-10-21T15:38:48.483Z,10.25
2022-10-21T15:41:21.833Z,14.02
2022-10-21T15:44:23.075Z,19.15
2022-10-21T15:46:50.540Z,23.70
2022-10-21T15:49:20.494Z,24.95
2022-10-21T15:51:49.274Z,12.20
2022-10-21T15:54:18.089Z,12.95
2022-10-21T15:56:48.438Z,9.88
2022-10-21T15:59:26.561Z,7.35
2022-10-21T16:01:54.700Z,5.88
2022-10-21T16:04:22.015Z,6.45
2022-10-21T16:06:50.869Z,5.80
2022-10-21T16:09:28.214Z,6.53
2022-10-21T16:12:00.340Z,8.45
2022-10-21T16:14:30.064Z,7.70
2022-10-21T16:16:59.244Z,7.70
2022-10-21T16:19:26.977Z,8.35
2022-10-21T16:21:54.245Z,8.35
2022-10-21T16:24:21.593Z,11.73
2022-10-21T16:26:49.641Z,13.70
2022-10-21T16:29:20.297Z,12.50
2022-10-21T16:31:48.042Z,8.07
2022-10-21T16:34:15.219Z,7.13
2022-10-21T16:36:42.964Z,6.82
2022-10-21T16:39:20.351Z,6.82
2022-10-21T16:41:48.051Z,6.28
2022-10-21T16:44:15.821Z,6.03
2022-10-21T16:46:54.280Z,6.00
2022-10-21T16:49:24.544Z,5.38
2022-10-21T16:51:57.352Z,5.30
2022-10-21T16:54:24.560Z,6.35
2022-10-21T16:56:54.967Z,7.55
2022-10-21T16:59:23.381Z,7.20
2022-10-21T17:01:51.007Z,7.40
2022-10-21T17:04:18.288Z,8.80
2022-10-21T17:06:45.494Z,7.10
2022-10-21T17:09:12.906Z,7.68
2022-10-21T17:11:42.240Z,8.35
2022-10-21T17:14:15.545Z,9.32
2022-10-21T17:16:42.834Z,7.60
2022-10-21T17:19:09.986Z,7.30
2022-10-21T17:21:37.346Z,7.05
2022-10-21T17:24:05.519Z,7.47
2022-10-21T17:26:36.803Z,7.95
2022-10-21T17:29:04.029Z,7.57
2022-10-21T17:31:31.391Z,8.23
2022-10-21T17:34:07.280Z,8.95
2022-10-21T17:36:35.333Z,8.55
2022-10-21T17:39:03.573Z,9.80
2022-10-21T17:41:31.103Z,9.38
2022-10-21T17:44:01.631Z,9.57
2022-10-21T17:46:28.809Z,9.68
2022-10-21T17:48:57.500Z,9.25
2022-10-21T17:51:25.773Z,9.77
2022-10-21T17:53:54.857Z,8.70
2022-10-21T17:56:23.344Z,8.40
2022-10-21T17:58:53.243Z,9.50
2022-10-21T18:01:22.033Z,10.35
2022-10-21T18:03:49.538Z,10.02
2022-10-21T18:06:16.761Z,11.10
2022-10-21T18:08:43.982Z,11.25
2022-10-21T18:11:14.538Z,11.80
2022-10-21T18:13:42.696Z,12.20
2022-10-21T18:16:16.394Z,11.10
2022-10-21T18:18:44.365Z,10.10
2022-10-21T18:21:14.958Z,9.00
2022-10-21T18:23:43.866Z,9.63
2022-10-21T18:26:20.819Z,11.43
2022-10-21T18:28:59.678Z,9.88
2022-10-21T18:31:30.005Z,7.18
2022-10-21T18:33:59.272Z,6.47
2022-10-21T18:36:26.915Z,6.10
2022-10-21T18:38:54.467Z,5.97
2022-10-21T18:41:22.159Z,5.97
2022-10-21T18:43:54.814Z,6.40
2022-10-21T18:46:23.798Z,7.13
2022-10-21T18:48:51.051Z,6.38
2022-10-21T18:51:19.333Z,5.70
2022-10-21T18:53:50.164Z,5.10
2022-10-21T18:56:21.499Z,4.78
2022-10-21T18:58:49.821Z,4.78
2022-10-21T19:01:18.134Z,4.93
2022-10-21T19:03:45.744Z,5.78
2022-10-21T19:06:39.161Z,4.88
2022-10-21T19:09:08.349Z,4.40
2022-10-21T19:11:35.609Z,3.53
2022-10-21T19:14:02.807Z,4.05
2022-10-21T19:16:30.078Z,9.38
2022-10-21T19:18:57.296Z,5.25
2022-10-21T19:21:25.185Z,4.85
2022-10-21T19:23:53.493Z,3.60
2022-10-21T19:26:23.047Z,3.47
2022-10-21T19:28:50.552Z,3.42
2022-10-21T19:31:21.132Z,4.40
2022-10-21T19:33:48.638Z,3.75
2022-10-21T19:36:15.774Z,3.80
2022-10-21T19:38:44.796Z,3.45
2022-10-21T19:41:16.007Z,3.10
2022-10-21T19:43:43.245Z,3.40
2022-10-21T19:46:16.887Z,2.80
2022-10-21T19:48:45.786Z,3.50
2022-10-21T19:51:15.352Z,3.00
2022-10-21T19:53:45.136Z,3.03
2022-10-21T19:56:13.883Z,3.30
2022-10-21T19:58:43.683Z,3.05
2022-10-21T20:01:12.782Z,3.28
2022-10-21T20:03:41.985Z,3.03
2022-10-21T20:08:44.783Z,3.28
2022-10-21T20:11:17.932Z,3.20
2022-10-21T20:13:45.563Z,3.17
2022-10-21T20:16:24.631Z,3.33
2022-10-21T20:18:52.156Z,3.10
2022-10-21T20:21:19.592Z,2.78
2022-10-21T20:23:46.783Z,3.65
2022-10-21T20:26:13.935Z,3.30
2022-10-21T20:28:41.130Z,2.85
2022-10-21T20:31:11.494Z,2.97
2022-10-21T20:33:41.192Z,3.08
2022-10-21T20:36:15.165Z,3.00
2022-10-21T20:38:43.147Z,3.40
2022-10-21T20:41:15.656Z,3.30
2022-10-21T20:43:43.889Z,3.55
2022-10-21T20:46:13.240Z,3.05
2022-10-21T20:48:46.118Z,2.92
2022-10-21T20:51:16.273Z,3.00
2022-10-21T20:53:52.379Z,3.78
2022-10-21T20:56:20.005Z,3.95
2022-10-21T20:58:47.345Z,4.10
